sensor_id;sensor_type;location;lat;lon;timestamp;P1;durP1;ratioP1;P2;durP2;ratioP2
69703;SDS011;56967;43.538;-5.646;2022-09-01T00:00:38;51.50;;;34.03;;
69703;SDS011;56967;43.538;-5.646;2022-09-01T00:03:06;16.27;;;10.25;;
69703;SDS011;56967;43.538;-5.646;2022-09-01T00:05:31;15.00;;;9.25;;
69703;SDS011;56967;43.538;-5.646;2022-09-01T00:07:57;14.02;;;9.35;;
69703;SDS011;56967;43.538;-5.646;2022-09-01T00:10:22;14.13;;;9.73;;
69703;SDS011;56967;43.538;-5.646;2022-09-01T00:12:47;14.02;;;9.30;;
69703;SDS011;56967;43.538;-5.646;2022-09-01T00:15:13;13.80;;;8.88;;
69703;SDS011;56967;43.538;-5.646;2022-09-01T00:17:39;12.68;;;8.88;;
69703;SDS011;56967;43.538;-5.646;2022-09-01T00:20:05;12.98;;;9.43;;
69703;SDS011;56967;43.538;-5.646;2022-09-01T00:22:31;10.82;;;8.52;;
69703;SDS011;56967;43.538;-5.646;2022-09-01T00:24:57;13.95;;;8.32;;
69703;SDS011;56967;43.538;-5.646;2022-09-01T00:27:23;12.27;;;8.05;;
69703;SDS011;56967;43.538;-5.646;2022-09-01T00:29:48;17.45;;;8.27;;
69703;SDS011;56967;43.538;-5.646;2022-09-01T00:32:13;14.77;;;7.78;;
69703;SDS011;56967;43.538;-5.646;2022-09-01T00:34:39;12.23;;;8.65;;
69703;SDS011;56967;43.538;-5.646;2022-09-01T00:37:04;11.40;;;7.97;;
69703;SDS011;56967;43.538;-5.646;2022-09-01T00:39:30;13.93;;;7.63;;
69703;SDS011;56967;43.538;-5.646;2022-09-01T00:41:55;11.20;;;8.50;;
69703;SDS011;56967;43.538;-5.646;2022-09-01T00:44:23;8.70;;;7.13;;
69703;SDS011;56967;43.538;-5.646;2022-09-01T00:46:52;11.15;;;7.50;;
69703;SDS011;56967;43.538;-5.646;2022-09-01T00:49:25;10.00;;;6.97;;
69703;SDS011;56967;43.538;-5.646;2022-09-01T00:51:53;11.82;;;7.65;;
69703;SDS011;56967;43.538;-5.646;2022-09-01T00:54:21;10.23;;;7.20;;
69703;SDS011;56967;43.538;-5.646;2022-09-01T00:56:46;12.20;;;7.68;;
69703;SDS011;56967;43.538;-5.646;2022-09-01T00:59:12;11.30;;;7.03;;
69703;SDS011;56967;43.538;-5.646;2022-09-01T01:01:38;13.65;;;7.78;;
69703;SDS011;56967;43.538;-5.646;2022-09-01T01:04:04;12.75;;;7.97;;
69703;SDS011;56967;43.538;-5.646;2022-09-01T01:06:30;10.43;;;7.43;;
69703;SDS011;56967;43.538;-5.646;2022-09-01T01:08:57;10.90;;;7.80;;
69703;SDS011;56967;43.538;-5.646;2022-09-01T01:11:24;10.40;;;7.45;;
69703;SDS011;56967;43.538;-5.646;2022-09-01T01:13:54;10.00;;;7.40;;
69703;SDS011;56967;43.538;-5.646;2022-09-01T01:16:21;13.73;;;8.23;;
69703;SDS011;56967;43.538;-5.646;2022-09-01T01:18:48;11.20;;;7.55;;
69703;SDS011;56967;43.538;-5.646;2022-09-01T01:21:14;8.40;;;7.20;;
69703;SDS011;56967;43.538;-5.646;2022-09-01T01:24:22;10.85;;;6.80;;
69703;SDS011;56967;43.538;-5.646;2022-09-01T01:26:44;8.75;;;5.80;;
69703;SDS011;56967;43.538;-5.646;2022-09-01T01:29:11;5.60;;;4.90;;
69703;SDS011;56967;43.538;-5.646;2022-09-01T01:31:37;7.50;;;5.10;;
69703;SDS011;56967;43.538;-5.646;2022-09-01T01:34:03;9.70;;;5.35;;
69703;SDS011;56967;43.538;-5.646;2022-09-01T01:36:32;7.45;;;5.07;;
69703;SDS011;56967;43.538;-5.646;2022-09-01T01:39:01;6.53;;;5.18;;
69703;SDS011;56967;43.538;-5.646;2022-09-01T01:41:28;4.95;;;4.10;;
69703;SDS011;56967;43.538;-5.646;2022-09-01T01:43:58;10.43;;;4.45;;
69703;SDS011;56967;43.538;-5.646;2022-09-01T01:46:24;12.48;;;5.07;;
69703;SDS011;56967;43.538;-5.646;2022-09-01T01:48:50;7.45;;;5.18;;
69703;SDS011;56967;43.538;-5.646;2022-09-01T01:51:16;7.50;;;5.40;;
69703;SDS011;56967;43.538;-5.646;2022-09-01T01:53:45;7.28;;;5.25;;
69703;SDS011;56967;43.538;-5.646;2022-09-01T01:56:11;7.93;;;5.32;;
69703;SDS011;56967;43.538;-5.646;2022-09-01T01:58:36;7.68;;;5.03;;
69703;SDS011;56967;43.538;-5.646;2022-09-01T02:01:04;8.20;;;6.20;;
69703;SDS011;56967;43.538;-5.646;2022-09-01T02:03:31;7.63;;;5.50;;
69703;SDS011;56967;43.538;-5.646;2022-09-01T02:06:02;7.88;;;5.57;;
69703;SDS011;56967;43.538;-5.646;2022-09-01T02:08:32;9.90;;;5.90;;
69703;SDS011;56967;43.538;-5.646;2022-09-01T02:10:58;9.13;;;6.25;;
69703;SDS011;56967;43.538;-5.646;2022-09-01T02:13:24;10.25;;;5.80;;
69703;SDS011;56967;43.538;-5.646;2022-09-01T02:15:53;7.40;;;5.70;;
69703;SDS011;56967;43.538;-5.646;2022-09-01T02:18:20;9.10;;;5.78;;
69703;SDS011;56967;43.538;-5.646;2022-09-01T02:20:48;9.65;;;5.90;;
69703;SDS011;56967;43.538;-5.646;2022-09-01T02:23:14;9.40;;;6.00;;
69703;SDS011;56967;43.538;-5.646;2022-09-01T02:25:43;9.50;;;6.22;;
69703;SDS011;56967;43.538;-5.646;2022-09-01T02:28:09;8.48;;;5.95;;
69703;SDS011;56967;43.538;-5.646;2022-09-01T02:30:40;10.65;;;5.88;;
69703;SDS011;56967;43.538;-5.646;2022-09-01T02:33:06;7.30;;;5.60;;
69703;SDS011;56967;43.538;-5.646;2022-09-01T02:35:34;14.65;;;6.35;;
69703;SDS011;56967;43.538;-5.646;2022-09-01T02:38:04;10.43;;;5.60;;
69703;SDS011;56967;43.538;-5.646;2022-09-01T02:40:30;9.50;;;6.60;;
69703;SDS011;56967;43.538;-5.646;2022-09-01T02:42:57;8.15;;;5.38;;
69703;SDS011;56967;43.538;-5.646;2022-09-01T02:45:23;8.68;;;5.47;;
69703;SDS011;56967;43.538;-5.646;2022-09-01T02:47:49;8.75;;;5.88;;
69703;SDS011;56967;43.538;-5.646;2022-09-01T02:50:16;9.27;;;5.57;;
69703;SDS011;56967;43.538;-5.646;2022-09-01T02:52:43;8.77;;;5.60;;
69703;SDS011;56967;43.538;-5.646;2022-09-01T02:55:09;10.52;;;5.85;;
69703;SDS011;56967;43.538;-5.646;2022-09-01T02:57:35;7.88;;;5.45;;
69703;SDS011;56967;43.538;-5.646;2022-09-01T03:00:02;9.18;;;5.93;;
69703;SDS011;56967;43.538;-5.646;2022-09-01T03:02:29;7.40;;;4.70;;
69703;SDS011;56967;43.538;-5.646;2022-09-01T03:04:55;12.02;;;5.32;;
69703;SDS011;56967;43.538;-5.646;2022-09-01T03:07:21;8.27;;;4.63;;
69703;SDS011;56967;43.538;-5.646;2022-09-01T03:09:48;10.80;;;5.10;;
69703;SDS011;56967;43.538;-5.646;2022-09-01T03:12:13;7.93;;;5.13;;
69703;SDS011;56967;43.538;-5.646;2022-09-01T03:14:38;13.55;;;5.47;;
69703;SDS011;56967;43.538;-5.646;2022-09-01T03:17:04;6.22;;;4.70;;
69703;SDS011;56967;43.538;-5.646;2022-09-01T03:19:29;7.53;;;4.47;;
69703;SDS011;56967;43.538;-5.646;2022-09-01T03:21:58;7.43;;;4.88;;
69703;SDS011;56967;43.538;-5.646;2022-09-01T03:24:24;7.70;;;5.30;;
69703;SDS011;56967;43.538;-5.646;2022-09-01T03:26:49;5.13;;;4.53;;
69703;SDS011;56967;43.538;-5.646;2022-09-01T03:29:15;7.50;;;4.55;;
69703;SDS011;56967;43.538;-5.646;2022-09-01T03:31:40;9.10;;;4.75;;
69703;SDS011;56967;43.538;-5.646;2022-09-01T03:34:07;8.85;;;4.00;;
69703;SDS011;56967;43.538;-5.646;2022-09-01T03:36:35;11.75;;;5.00;;
69703;SDS011;56967;43.538;-5.646;2022-09-01T03:39:00;6.00;;;4.50;;
69703;SDS011;56967;43.538;-5.646;2022-09-01T03:41:26;7.15;;;4.10;;
69703;SDS011;56967;43.538;-5.646;2022-09-01T03:43:54;8.63;;;4.20;;
69703;SDS011;56967;43.538;-5.646;2022-09-01T03:46:22;7.72;;;4.55;;
69703;SDS011;56967;43.538;-5.646;2022-09-01T03:48:52;8.73;;;4.72;;
69703;SDS011;56967;43.538;-5.646;2022-09-01T03:51:19;8.88;;;4.25;;
69703;SDS011;56967;43.538;-5.646;2022-09-01T03:53:46;7.05;;;4.65;;
69703;SDS011;56967;43.538;-5.646;2022-09-01T03:56:12;8.40;;;4.75;;
69703;SDS011;56967;43.538;-5.646;2022-09-01T03:58:39;8.45;;;4.68;;
69703;SDS011;56967;43.538;-5.646;2022-09-01T04:01:05;7.22;;;4.70;;
69703;SDS011;56967;43.538;-5.646;2022-09-01T04:03:32;7.75;;;4.70;;
69703;SDS011;56967;43.538;-5.646;2022-09-01T04:05:59;7.38;;;4.97;;
69703;SDS011;56967;43.538;-5.646;2022-09-01T04:08:24;5.50;;;4.43;;
69703;SDS011;56967;43.538;-5.646;2022-09-01T04:10:53;7.25;;;4.70;;
69703;SDS011;56967;43.538;-5.646;2022-09-01T04:13:20;5.90;;;4.30;;
69703;SDS011;56967;43.538;-5.646;2022-09-01T04:15:46;8.27;;;4.63;;
69703;SDS011;56967;43.538;-5.646;2022-09-01T04:18:12;7.80;;;4.68;;
69703;SDS011;56967;43.538;-5.646;2022-09-01T04:20:45;7.03;;;4.75;;
69703;SDS011;56967;43.538;-5.646;2022-09-01T04:23:21;6.72;;;4.50;;
69703;SDS011;56967;43.538;-5.646;2022-09-01T04:26:01;8.00;;;4.72;;
69703;SDS011;56967;43.538;-5.646;2022-09-01T04:28:33;7.15;;;4.53;;
69703;SDS011;56967;43.538;-5.646;2022-09-01T04:31:01;7.30;;;4.45;;
69703;SDS011;56967;43.538;-5.646;2022-09-01T04:33:30;6.13;;;4.45;;
69703;SDS011;56967;43.538;-5.646;2022-09-01T04:36:01;7.97;;;4.45;;
69703;SDS011;56967;43.538;-5.646;2022-09-01T04:38:26;7.65;;;4.80;;
69703;SDS011;56967;43.538;-5.646;2022-09-01T04:40:54;7.75;;;4.57;;
69703;SDS011;56967;43.538;-5.646;2022-09-01T04:43:22;7.22;;;4.22;;
69703;SDS011;56967;43.538;-5.646;2022-09-01T04:45:47;7.13;;;4.45;;
69703;SDS011;56967;43.538;-5.646;2022-09-01T04:48:16;9.60;;;4.50;;
69703;SDS011;56967;43.538;-5.646;2022-09-01T04:50:42;6.70;;;4.25;;
69703;SDS011;56967;43.538;-5.646;2022-09-01T04:53:09;7.93;;;4.28;;
69703;SDS011;56967;43.538;-5.646;2022-09-01T04:55:37;7.10;;;4.15;;
69703;SDS011;56967;43.538;-5.646;2022-09-01T04:58:04;6.25;;;4.28;;
69703;SDS011;56967;43.538;-5.646;2022-09-01T05:00:29;5.90;;;4.47;;
69703;SDS011;56967;43.538;-5.646;2022-09-01T05:03:00;6.70;;;4.10;;
69703;SDS011;56967;43.538;-5.646;2022-09-01T05:05:35;6.00;;;4.20;;
69703;SDS011;56967;43.538;-5.646;2022-09-01T05:08:03;5.68;;;4.10;;
69703;SDS011;56967;43.538;-5.646;2022-09-01T05:10:28;6.50;;;4.60;;
69703;SDS011;56967;43.538;-5.646;2022-09-01T05:12:54;8.00;;;4.60;;
69703;SDS011;56967;43.538;-5.646;2022-09-01T05:15:21;5.60;;;4.00;;
69703;SDS011;56967;43.538;-5.646;2022-09-01T05:17:47;9.10;;;4.40;;
69703;SDS011;56967;43.538;-5.646;2022-09-01T05:20:13;6.97;;;4.13;;
69703;SDS011;56967;43.538;-5.646;2022-09-01T05:22:38;6.75;;;4.38;;
69703;SDS011;56967;43.538;-5.646;2022-09-01T05:25:05;9.55;;;5.00;;
69703;SDS011;56967;43.538;-5.646;2022-09-01T05:27:40;7.85;;;4.32;;
69703;SDS011;56967;43.538;-5.646;2022-09-01T05:30:06;7.60;;;4.13;;
69703;SDS011;56967;43.538;-5.646;2022-09-01T05:32:35;8.63;;;4.53;;
69703;SDS011;56967;43.538;-5.646;2022-09-01T05:35:04;6.88;;;4.28;;
69703;SDS011;56967;43.538;-5.646;2022-09-01T05:37:32;6.70;;;4.50;;
69703;SDS011;56967;43.538;-5.646;2022-09-01T05:39:58;5.10;;;4.40;;
69703;SDS011;56967;43.538;-5.646;2022-09-01T05:42:25;6.72;;;4.28;;
69703;SDS011;56967;43.538;-5.646;2022-09-01T05:44:51;5.63;;;4.45;;
69703;SDS011;56967;43.538;-5.646;2022-09-01T05:47:17;6.95;;;4.80;;
69703;SDS011;56967;43.538;-5.646;2022-09-01T05:49:42;9.73;;;5.05;;
69703;SDS011;56967;43.538;-5.646;2022-09-01T05:52:08;7.38;;;4.80;;
69703;SDS011;56967;43.538;-5.646;2022-09-01T05:54:34;8.35;;;4.70;;
69703;SDS011;56967;43.538;-5.646;2022-09-01T05:57:00;8.23;;;4.82;;
69703;SDS011;56967;43.538;-5.646;2022-09-01T05:59:27;7.38;;;4.10;;
69703;SDS011;56967;43.538;-5.646;2022-09-01T06:01:55;7.10;;;5.03;;
69703;SDS011;56967;43.538;-5.646;2022-09-01T06:04:21;5.60;;;4.82;;
69703;SDS011;56967;43.538;-5.646;2022-09-01T06:06:47;7.78;;;4.90;;
69703;SDS011;56967;43.538;-5.646;2022-09-01T06:09:14;9.65;;;4.60;;
69703;SDS011;56967;43.538;-5.646;2022-09-01T06:11:42;9.07;;;4.80;;
69703;SDS011;56967;43.538;-5.646;2022-09-01T06:14:07;8.45;;;5.07;;
69703;SDS011;56967;43.538;-5.646;2022-09-01T06:16:35;6.95;;;4.40;;
69703;SDS011;56967;43.538;-5.646;2022-09-01T06:19:01;8.65;;;5.60;;
69703;SDS011;56967;43.538;-5.646;2022-09-01T06:21:27;6.15;;;4.47;;
69703;SDS011;56967;43.538;-5.646;2022-09-01T06:23:53;9.07;;;4.65;;
69703;SDS011;56967;43.538;-5.646;2022-09-01T06:26:20;8.80;;;4.90;;
69703;SDS011;56967;43.538;-5.646;2022-09-01T06:28:47;12.10;;;5.00;;
69703;SDS011;56967;43.538;-5.646;2022-09-01T06:31:13;6.78;;;5.60;;
69703;SDS011;56967;43.538;-5.646;2022-09-01T06:33:39;8.38;;;5.80;;
69703;SDS011;56967;43.538;-5.646;2022-09-01T06:36:08;9.98;;;5.93;;
69703;SDS011;56967;43.538;-5.646;2022-09-01T06:38:34;7.22;;;4.50;;
69703;SDS011;56967;43.538;-5.646;2022-09-01T06:41:03;10.02;;;4.95;;
69703;SDS011;56967;43.538;-5.646;2022-09-01T06:43:30;7.88;;;5.03;;
69703;SDS011;56967;43.538;-5.646;2022-09-01T06:45:55;7.40;;;4.82;;
69703;SDS011;56967;43.538;-5.646;2022-09-01T06:48:21;9.82;;;5.20;;
69703;SDS011;56967;43.538;-5.646;2022-09-01T06:50:47;10.65;;;5.10;;
69703;SDS011;56967;43.538;-5.646;2022-09-01T06:53:13;7.80;;;4.53;;
69703;SDS011;56967;43.538;-5.646;2022-09-01T06:55:42;7.78;;;5.35;;
69703;SDS011;56967;43.538;-5.646;2022-09-01T06:58:08;7.68;;;5.63;;
69703;SDS011;56967;43.538;-5.646;2022-09-01T07:00:36;7.72;;;5.45;;
69703;SDS011;56967;43.538;-5.646;2022-09-01T07:03:09;7.75;;;5.55;;
69703;SDS011;56967;43.538;-5.646;2022-09-01T07:05:42;7.28;;;5.13;;
69703;SDS011;56967;43.538;-5.646;2022-09-01T07:08:08;8.52;;;5.18;;
69703;SDS011;56967;43.538;-5.646;2022-09-01T07:10:38;8.27;;;5.05;;
69703;SDS011;56967;43.538;-5.646;2022-09-01T07:13:05;6.38;;;5.05;;
69703;SDS011;56967;43.538;-5.646;2022-09-01T07:15:32;7.03;;;4.60;;
69703;SDS011;56967;43.538;-5.646;2022-09-01T07:17:57;6.32;;;4.30;;
69703;SDS011;56967;43.538;-5.646;2022-09-01T07:20:24;4.80;;;3.80;;
69703;SDS011;56967;43.538;-5.646;2022-09-01T07:22:51;4.78;;;4.18;;
69703;SDS011;56967;43.538;-5.646;2022-09-01T07:25:16;5.00;;;4.10;;
69703;SDS011;56967;43.538;-5.646;2022-09-01T07:27:42;4.40;;;3.78;;
69703;SDS011;56967;43.538;-5.646;2022-09-01T07:30:13;6.20;;;4.00;;
69703;SDS011;56967;43.538;-5.646;2022-09-01T07:32:38;5.00;;;4.15;;
69703;SDS011;56967;43.538;-5.646;2022-09-01T07:35:09;6.20;;;4.63;;
69703;SDS011;56967;43.538;-5.646;2022-09-01T07:37:34;6.22;;;5.63;;
69703;SDS011;56967;43.538;-5.646;2022-09-01T07:40:06;6.07;;;5.40;;
69703;SDS011;56967;43.538;-5.646;2022-09-01T07:42:32;8.15;;;5.78;;
69703;SDS011;56967;43.538;-5.646;2022-09-01T07:44:58;7.10;;;4.78;;
69703;SDS011;56967;43.538;-5.646;2022-09-01T07:47:24;6.78;;;6.18;;
69703;SDS011;56967;43.538;-5.646;2022-09-01T07:49:50;8.25;;;7.65;;
69703;SDS011;56967;43.538;-5.646;2022-09-01T07:52:15;8.23;;;7.53;;
69703;SDS011;56967;43.538;-5.646;2022-09-01T07:54:44;9.10;;;8.35;;
69703;SDS011;56967;43.538;-5.646;2022-09-01T07:57:10;9.70;;;8.80;;
69703;SDS011;56967;43.538;-5.646;2022-09-01T07:59:35;11.63;;;10.53;;
69703;SDS011;56967;43.538;-5.646;2022-09-01T08:02:00;12.68;;;11.60;;
69703;SDS011;56967;43.538;-5.646;2022-09-01T08:04:29;11.05;;;10.23;;
69703;SDS011;56967;43.538;-5.646;2022-09-01T08:06:55;14.57;;;13.25;;
69703;SDS011;56967;43.538;-5.646;2022-09-01T08:09:21;14.48;;;13.38;;
69703;SDS011;56967;43.538;-5.646;2022-09-01T08:11:47;12.15;;;11.30;;
69703;SDS011;56967;43.538;-5.646;2022-09-01T08:14:12;19.23;;;17.93;;
69703;SDS011;56967;43.538;-5.646;2022-09-01T08:16:37;16.17;;;15.07;;
69703;SDS011;56967;43.538;-5.646;2022-09-01T08:19:03;16.03;;;14.93;;
69703;SDS011;56967;43.538;-5.646;2022-09-01T08:21:28;17.17;;;16.07;;
69703;SDS011;56967;43.538;-5.646;2022-09-01T08:23:54;17.57;;;16.33;;
69703;SDS011;56967;43.538;-5.646;2022-09-01T08:26:20;23.00;;;21.38;;
69703;SDS011;56967;43.538;-5.646;2022-09-01T08:28:46;27.48;;;25.65;;
69703;SDS011;56967;43.538;-5.646;2022-09-01T08:31:13;22.63;;;20.83;;
69703;SDS011;56967;43.538;-5.646;2022-09-01T08:33:39;29.77;;;27.77;;
69703;SDS011;56967;43.538;-5.646;2022-09-01T08:36:06;33.90;;;31.75;;
69703;SDS011;56967;43.538;-5.646;2022-09-01T08:38:31;1999.90;;;999.90;;
69703;SDS011;56967;43.538;-5.646;2022-09-01T08:40:58;1999.90;;;999.90;;
69703;SDS011;56967;43.538;-5.646;2022-09-01T08:43:49;1999.90;;;999.90;;
69703;SDS011;56967;43.538;-5.646;2022-09-01T08:46:19;1999.90;;;999.90;;
69703;SDS011;56967;43.538;-5.646;2022-09-01T08:48:48;1999.90;;;999.90;;
69703;SDS011;56967;43.538;-5.646;2022-09-01T08:51:31;1999.90;;;999.90;;
69703;SDS011;56967;43.538;-5.646;2022-09-01T08:56:44;1999.90;;;999.90;;
69703;SDS011;56967;43.538;-5.646;2022-09-01T08:59:11;31.85;;;29.85;;
69703;SDS011;56967;43.538;-5.646;2022-09-01T09:07:01;39.83;;;37.38;;
69703;SDS011;56967;43.538;-5.646;2022-09-01T09:17:22;29.42;;;27.33;;
69703;SDS011;56967;43.538;-5.646;2022-09-01T09:19:49;4.80;;;4.50;;
69703;SDS011;56967;43.538;-5.646;2022-09-01T09:22:16;2.97;;;1.70;;
69703;SDS011;56967;43.538;-5.646;2022-09-01T09:24:52;2.17;;;1.80;;
69703;SDS011;56967;43.538;-5.646;2022-09-01T09:29:57;3.00;;;1.30;;
69703;SDS011;56967;43.538;-5.646;2022-09-01T09:32:24;3.88;;;1.60;;
69703;SDS011;56967;43.538;-5.646;2022-09-01T09:35:17;4.03;;;1.50;;
69703;SDS011;56967;43.538;-5.646;2022-09-01T09:37:42;2.83;;;1.58;;
69703;SDS011;56967;43.538;-5.646;2022-09-01T09:42:37;5.25;;;2.10;;
69703;SDS011;56967;43.538;-5.646;2022-09-01T09:45:05;2.92;;;1.88;;
69703;SDS011;56967;43.538;-5.646;2022-09-01T09:50:13;5.95;;;2.47;;
69703;SDS011;56967;43.538;-5.646;2022-09-01T09:52:41;8.98;;;2.88;;
69703;SDS011;56967;43.538;-5.646;2022-09-01T09:55:43;5.10;;;3.20;;
69703;SDS011;56967;43.538;-5.646;2022-09-01T09:58:07;6.32;;;3.30;;
69703;SDS011;56967;43.538;-5.646;2022-09-01T10:00:34;3.97;;;3.10;;
69703;SDS011;56967;43.538;-5.646;2022-09-01T10:03:07;5.13;;;3.28;;
69703;SDS011;56967;43.538;-5.646;2022-09-01T10:05:36;4.88;;;3.50;;
69703;SDS011;56967;43.538;-5.646;2022-09-01T10:08:03;8.50;;;4.22;;
69703;SDS011;56967;43.538;-5.646;2022-09-01T10:10:40;13.00;;;4.78;;
69703;SDS011;56967;43.538;-5.646;2022-09-01T10:13:19;8.60;;;4.95;;
69703;SDS011;56967;43.538;-5.646;2022-09-01T10:15:50;9.02;;;4.88;;
69703;SDS011;56967;43.538;-5.646;2022-09-01T10:18:19;7.55;;;4.68;;
69703;SDS011;56967;43.538;-5.646;2022-09-01T10:20:53;9.30;;;4.93;;
69703;SDS011;56967;43.538;-5.646;2022-09-01T10:23:20;12.07;;;5.73;;
69703;SDS011;56967;43.538;-5.646;2022-09-01T10:25:46;10.30;;;5.40;;
69703;SDS011;56967;43.538;-5.646;2022-09-01T10:28:15;11.63;;;6.43;;
69703;SDS011;56967;43.538;-5.646;2022-09-01T10:30:42;14.10;;;6.82;;
69703;SDS011;56967;43.538;-5.646;2022-09-01T10:33:08;14.07;;;7.70;;
69703;SDS011;56967;43.538;-5.646;2022-09-01T10:35:35;14.88;;;7.70;;
69703;SDS011;56967;43.538;-5.646;2022-09-01T10:38:02;18.67;;;7.75;;
69703;SDS011;56967;43.538;-5.646;2022-09-01T10:40:38;13.65;;;6.63;;
69703;SDS011;56967;43.538;-5.646;2022-09-01T10:43:24;16.48;;;7.43;;
69703;SDS011;56967;43.538;-5.646;2022-09-01T10:45:51;16.17;;;6.88;;
69703;SDS011;56967;43.538;-5.646;2022-09-01T10:50:45;14.90;;;6.43;;
69703;SDS011;56967;43.538;-5.646;2022-09-01T10:53:36;13.30;;;7.00;;
69703;SDS011;56967;43.538;-5.646;2022-09-01T11:01:12;6.55;;;4.15;;
69703;SDS011;56967;43.538;-5.646;2022-09-01T11:03:48;8.10;;;4.65;;
69703;SDS011;56967;43.538;-5.646;2022-09-01T11:06:30;8.68;;;4.50;;
69703;SDS011;56967;43.538;-5.646;2022-09-01T11:08:59;6.07;;;4.30;;
69703;SDS011;56967;43.538;-5.646;2022-09-01T11:13:54;4.75;;;3.53;;
69703;SDS011;56967;43.538;-5.646;2022-09-01T11:21:41;9.60;;;4.40;;
69703;SDS011;56967;43.538;-5.646;2022-09-01T11:26:50;6.78;;;4.40;;
69703;SDS011;56967;43.538;-5.646;2022-09-01T11:32:00;9.75;;;6.10;;
69703;SDS011;56967;43.538;-5.646;2022-09-01T11:34:28;10.07;;;5.68;;
69703;SDS011;56967;43.538;-5.646;2022-09-01T11:36:58;8.23;;;5.50;;
69703;SDS011;56967;43.538;-5.646;2022-09-01T11:39:29;7.53;;;5.38;;
69703;SDS011;56967;43.538;-5.646;2022-09-01T11:42:16;10.25;;;5.88;;
69703;SDS011;56967;43.538;-5.646;2022-09-01T11:47:12;8.27;;;6.15;;
69703;SDS011;56967;43.538;-5.646;2022-09-01T11:49:48;6.72;;;5.00;;
69703;SDS011;56967;43.538;-5.646;2022-09-01T11:52:15;8.77;;;5.78;;
69703;SDS011;56967;43.538;-5.646;2022-09-01T11:54:41;7.28;;;4.32;;
69703;SDS011;56967;43.538;-5.646;2022-09-01T12:00:12;7.38;;;4.45;;
69703;SDS011;56967;43.538;-5.646;2022-09-01T12:02:42;11.00;;;4.70;;
69703;SDS011;56967;43.538;-5.646;2022-09-01T12:07:52;8.38;;;4.30;;
69703;SDS011;56967;43.538;-5.646;2022-09-01T12:10:26;7.28;;;4.25;;
69703;SDS011;56967;43.538;-5.646;2022-09-01T12:13:26;6.05;;;4.03;;
69703;SDS011;56967;43.538;-5.646;2022-09-01T12:15:51;5.55;;;4.13;;
69703;SDS011;56967;43.538;-5.646;2022-09-01T12:18:20;6.18;;;4.13;;
69703;SDS011;56967;43.538;-5.646;2022-09-01T12:20:47;5.38;;;3.90;;
69703;SDS011;56967;43.538;-5.646;2022-09-01T12:23:29;8.32;;;3.95;;
69703;SDS011;56967;43.538;-5.646;2022-09-01T12:25:58;6.85;;;4.40;;
69703;SDS011;56967;43.538;-5.646;2022-09-01T12:28:25;7.30;;;4.47;;
69703;SDS011;56967;43.538;-5.646;2022-09-01T12:30:51;4.60;;;3.92;;
69703;SDS011;56967;43.538;-5.646;2022-09-01T12:33:19;6.10;;;4.03;;
69703;SDS011;56967;43.538;-5.646;2022-09-01T12:35:45;8.77;;;4.40;;
69703;SDS011;56967;43.538;-5.646;2022-09-01T12:38:20;9.63;;;4.40;;
69703;SDS011;56967;43.538;-5.646;2022-09-01T12:40:47;7.15;;;4.82;;
69703;SDS011;56967;43.538;-5.646;2022-09-01T12:43:26;10.23;;;4.90;;
69703;SDS011;56967;43.538;-5.646;2022-09-01T12:45:52;5.60;;;4.70;;
69703;SDS011;56967;43.538;-5.646;2022-09-01T12:50:49;7.18;;;4.05;;
69703;SDS011;56967;43.538;-5.646;2022-09-01T12:53:17;5.68;;;4.20;;
69703;SDS011;56967;43.538;-5.646;2022-09-01T12:55:51;6.90;;;4.25;;
69703;SDS011;56967;43.538;-5.646;2022-09-01T12:58:22;8.57;;;4.32;;
69703;SDS011;56967;43.538;-5.646;2022-09-01T13:00:54;6.60;;;4.35;;
69703;SDS011;56967;43.538;-5.646;2022-09-01T13:03:20;7.78;;;4.82;;
69703;SDS011;56967;43.538;-5.646;2022-09-01T13:05:50;7.90;;;4.40;;
69703;SDS011;56967;43.538;-5.646;2022-09-01T13:08:17;6.00;;;4.15;;
69703;SDS011;56967;43.538;-5.646;2022-09-01T13:10:44;7.18;;;4.80;;
69703;SDS011;56967;43.538;-5.646;2022-09-01T13:13:10;8.73;;;4.85;;
69703;SDS011;56967;43.538;-5.646;2022-09-01T13:15:40;7.30;;;4.55;;
69703;SDS011;56967;43.538;-5.646;2022-09-01T13:18:06;8.43;;;4.60;;
69703;SDS011;56967;43.538;-5.646;2022-09-01T13:20:31;5.78;;;4.22;;
69703;SDS011;56967;43.538;-5.646;2022-09-01T13:22:57;7.18;;;4.47;;
69703;SDS011;56967;43.538;-5.646;2022-09-01T13:25:23;5.70;;;3.83;;
69703;SDS011;56967;43.538;-5.646;2022-09-01T13:27:49;6.75;;;4.28;;
69703;SDS011;56967;43.538;-5.646;2022-09-01T13:30:20;4.78;;;3.67;;
69703;SDS011;56967;43.538;-5.646;2022-09-01T13:32:46;8.05;;;4.40;;
69703;SDS011;56967;43.538;-5.646;2022-09-01T13:35:12;7.55;;;4.65;;
69703;SDS011;56967;43.538;-5.646;2022-09-01T13:37:39;7.07;;;4.60;;
69703;SDS011;56967;43.538;-5.646;2022-09-01T13:40:04;6.85;;;4.35;;
69703;SDS011;56967;43.538;-5.646;2022-09-01T13:42:32;6.82;;;4.65;;
69703;SDS011;56967;43.538;-5.646;2022-09-01T13:44:57;8.83;;;5.20;;
69703;SDS011;56967;43.538;-5.646;2022-09-01T13:47:23;8.63;;;4.63;;
69703;SDS011;56967;43.538;-5.646;2022-09-01T13:49:48;8.60;;;4.13;;
69703;SDS011;56967;43.538;-5.646;2022-09-01T13:52:14;11.18;;;4.78;;
69703;SDS011;56967;43.538;-5.646;2022-09-01T13:54:39;6.25;;;4.43;;
69703;SDS011;56967;43.538;-5.646;2022-09-01T13:57:05;7.63;;;4.28;;
69703;SDS011;56967;43.538;-5.646;2022-09-01T13:59:30;7.43;;;4.47;;
69703;SDS011;56967;43.538;-5.646;2022-09-01T14:01:57;6.10;;;4.15;;
69703;SDS011;56967;43.538;-5.646;2022-09-01T14:04:22;7.88;;;4.68;;
69703;SDS011;56967;43.538;-5.646;2022-09-01T14:06:47;9.05;;;4.70;;
69703;SDS011;56967;43.538;-5.646;2022-09-01T14:09:13;10.25;;;4.40;;
69703;SDS011;56967;43.538;-5.646;2022-09-01T14:11:39;9.25;;;5.15;;
69703;SDS011;56967;43.538;-5.646;2022-09-01T14:14:05;9.10;;;4.93;;
69703;SDS011;56967;43.538;-5.646;2022-09-01T14:16:30;7.30;;;4.80;;
69703;SDS011;56967;43.538;-5.646;2022-09-01T14:18:56;6.75;;;4.60;;
69703;SDS011;56967;43.538;-5.646;2022-09-01T14:21:21;7.57;;;4.88;;
69703;SDS011;56967;43.538;-5.646;2022-09-01T14:23:47;7.85;;;5.10;;
69703;SDS011;56967;43.538;-5.646;2022-09-01T14:26:13;7.43;;;4.73;;
69703;SDS011;56967;43.538;-5.646;2022-09-01T14:28:39;7.70;;;5.03;;
69703;SDS011;56967;43.538;-5.646;2022-09-01T14:31:08;9.10;;;5.18;;
69703;SDS011;56967;43.538;-5.646;2022-09-01T14:33:35;7.57;;;4.25;;
69703;SDS011;56967;43.538;-5.646;2022-09-01T14:36:00;9.57;;;5.50;;
69703;SDS011;56967;43.538;-5.646;2022-09-01T14:38:27;7.43;;;4.93;;
69703;SDS011;56967;43.538;-5.646;2022-09-01T14:40:52;8.98;;;5.15;;
69703;SDS011;56967;43.538;-5.646;2022-09-01T14:43:18;7.40;;;4.93;;
69703;SDS011;56967;43.538;-5.646;2022-09-01T14:45:44;7.07;;;4.85;;
69703;SDS011;56967;43.538;-5.646;2022-09-01T14:48:12;6.68;;;5.15;;
69703;SDS011;56967;43.538;-5.646;2022-09-01T14:50:39;6.72;;;5.20;;
69703;SDS011;56967;43.538;-5.646;2022-09-01T14:53:05;7.57;;;5.18;;
69703;SDS011;56967;43.538;-5.646;2022-09-01T14:55:30;8.37;;;5.40;;
69703;SDS011;56967;43.538;-5.646;2022-09-01T14:57:57;7.03;;;4.93;;
69703;SDS011;56967;43.538;-5.646;2022-09-01T15:00:23;6.97;;;4.90;;
69703;SDS011;56967;43.538;-5.646;2022-09-01T15:02:49;10.15;;;5.25;;
69703;SDS011;56967;43.538;-5.646;2022-09-01T15:05:15;5.72;;;4.72;;
69703;SDS011;56967;43.538;-5.646;2022-09-01T15:07:40;7.22;;;4.75;;
69703;SDS011;56967;43.538;-5.646;2022-09-01T15:10:07;9.55;;;5.00;;
69703;SDS011;56967;43.538;-5.646;2022-09-01T15:12:33;9.68;;;4.40;;
69703;SDS011;56967;43.538;-5.646;2022-09-01T15:14:58;7.88;;;4.38;;
69703;SDS011;56967;43.538;-5.646;2022-09-01T15:17:25;7.63;;;4.50;;
69703;SDS011;56967;43.538;-5.646;2022-09-01T15:19:50;7.85;;;4.63;;
69703;SDS011;56967;43.538;-5.646;2022-09-01T15:22:16;7.30;;;4.35;;
69703;SDS011;56967;43.538;-5.646;2022-09-01T15:24:41;8.85;;;4.38;;
69703;SDS011;56967;43.538;-5.646;2022-09-01T15:27:07;5.88;;;4.80;;